Latest Weather Observations for PORTABLE QFRB

IDQ60801

Issued at 6:32 pm EST Sunday 25 September 2016 (issued every 30 minutes, with the page automatically refreshed every 10 minutes)

About weather observations | Map of weather stations | Latest weather observations for QLD | Other Formats
Station Details ID: 250048 Name: PORTABLE QFRB Lat: -23.38 Lon: 150.48 Height: 11.0 m
Data from the previous 72 hours. | See also: Recent months for locations in Queensland
Date/Time
EST
Temp
°C
App
Temp
°C
Dew
Point
°C
Rel
Hum
%
Delta-T
°C
Wind Press
QNH
hPa
Press
MSL
hPa
Rain since
9am
mm
Dir  Spd
km/h
Gust
km/h
Spd
kts
Gust
kts
25/06:20pm 30.4 26.5 9.3 27 11.8 WSW 20 24 11 13 - - 0.0
25/06:10pm 31.0 26.9 8.5 24 12.5 W 20 24 11 13 - - 0.0
25/06:00pm 31.4 26.8 9.7 26 12.3 W 24 32 13 17 - - 0.0
25/05:50pm 32.3 27.4 8.5 23 13.3 WSW 24 30 13 16 - - 0.0
25/05:40pm 32.3 27.0 8.6 23 13.2 WSW 26 33 14 18 - - 0.0
25/05:30pm 32.8 27.2 8.6 22 13.6 WSW 28 37 15 20 - - 0.0
25/05:20pm 33.3 26.8 8.2 21 14.0 WSW 32 35 17 19 - - 0.0
25/05:10pm 33.5 27.8 8.3 21 14.1 WSW 28 33 15 18 - - 0.0
25/05:00pm 33.7 26.6 8.0 20 14.3 WSW 35 41 19 22 - - 0.0
25/04:50pm 33.9 27.1 7.1 19 14.7 WSW 32 41 17 22 - - 0.0
25/04:40pm 34.3 28.1 7.7 19 14.8 WSW 30 33 16 18 - - 0.0
25/04:30pm 34.4 28.1 7.6 19 14.9 WSW 30 39 16 21 - - 0.0
25/04:20pm 34.3 26.5 6.8 18 15.1 WSW 37 43 20 23 - - 0.0
25/04:10pm 34.4 27.1 8.7 20 14.5 W 37 41 20 22 - - 0.0
25/04:00pm 34.5 28.3 9.4 21 14.4 W 32 41 17 22 - - 0.0
25/03:50pm 34.3 29.2 11.8 25 13.3 SW 30 39 16 21 - - 0.0
25/03:40pm 34.1 26.1 10.6 23 13.7 SW 43 52 23 28 - - 0.0
25/03:30pm 34.3 28.0 11.2 24 13.6 SW 35 46 19 25 - - 0.0
25/03:20pm 34.3 28.1 11.4 25 13.5 WSW 35 44 19 24 - - 0.0
25/03:10pm 34.2 27.9 13.4 28 12.6 W 39 50 21 27 - - 0.0
25/03:00pm 34.2 26.9 11.7 25 13.3 WSW 41 50 22 27 - - 0.0
25/02:50pm 34.2 27.0 10.6 23 13.7 WSW 39 46 21 25 - - 0.0
25/02:40pm 34.3 28.3 10.9 24 13.7 WSW 33 41 18 22 - - 0.0
25/02:30pm 33.7 29.9 13.7 30 12.2 WSW 26 33 14 18 - - 0.0
25/02:20pm 33.2 29.8 15.7 35 10.9 WNW 28 35 15 19 - - 0.0
25/02:10pm 33.5 29.0 14.8 32 11.5 W 32 44 17 24 - - 0.0
25/02:00pm 33.5 30.0 15.4 33 11.3 W 28 37 15 20 - - 0.0
25/01:50pm 33.6 29.7 15.5 33 11.3 W 30 35 16 19 - - 0.0
25/01:40pm 33.4 30.8 15.8 34 11.0 W 24 35 13 19 - - 0.0
25/01:30pm 33.2 28.7 15.4 34 11.1 WNW 33 43 18 23 - - 0.0
25/01:20pm 33.1 28.6 15.3 34 11.1 W 33 46 18 25 - - 0.0
25/01:10pm 33.0 26.5 15.2 34 11.0 W 43 54 23 29 - - 0.0
25/01:00pm 32.8 28.5 16.9 38 10.1 W 35 43 19 23 - - 0.0
25/12:50pm 32.6 28.6 16.1 37 10.4 NW 32 43 17 23 - - 0.0
25/12:40pm 32.2 27.7 16.5 39 9.9 WNW 35 46 19 25 - - 0.0
25/12:30pm 32.2 27.8 16.7 39 9.8 WNW 35 46 19 25 - - 0.0
25/12:20pm 31.9 28.8 18.4 44 8.7 NW 32 41 17 22 - - 0.0
25/12:10pm 31.7 28.2 17.5 42 9.1 NW 32 43 17 23 - - 0.0
25/12:00pm 31.7 29.0 18.4 45 8.6 W 30 33 16 18 - - 0.0
25/11:50am 31.3 28.7 18.7 47 8.2 WNW 30 43 16 23 - - 0.0
25/11:40am 31.0 28.8 18.6 47 8.0 W 28 35 15 19 - - 0.0
25/11:30am 30.9 28.0 18.9 48 7.8 W 32 41 17 22 - - 0.0
25/11:20am 30.8 28.0 19.0 49 7.7 W 32 39 17 21 - - 0.0
25/11:10am 30.1 26.9 18.6 50 7.4 W 33 43 18 23 - - 0.0
25/11:00am 30.2 27.1 18.4 49 7.6 WNW 32 39 17 21 - - 0.0
25/10:50am 30.1 27.7 18.3 49 7.6 WNW 28 41 15 22 - - 0.0
25/10:40am 29.4 26.5 18.8 53 6.8 W 32 39 17 21 - - 0.0
25/10:30am 29.3 26.3 19.1 54 6.6 W 33 43 18 23 - - 0.0
25/10:20am 29.0 25.8 19.4 56 6.2 WNW 35 44 19 24 - - 0.0
25/10:10am 28.5 25.9 19.6 58 5.8 WNW 32 37 17 20 - - 0.0
25/10:00am 27.3 24.9 20.0 64 4.8 W 32 37 17 20 - - 0.0
25/09:50am 27.2 23.7 19.7 63 4.9 WNW 37 46 20 25 - - 0.0
25/09:40am 27.0 24.9 19.8 64 4.7 WNW 30 39 16 21 - - 0.0
25/09:30am 26.7 25.1 20.1 67 4.3 NW 28 35 15 19 - - 0.0
25/09:20am 26.5 24.6 20.1 68 4.2 NW 30 37 16 20 - - 0.0
25/09:10am 26.2 24.3 20.1 69 4.0 NW 30 35 16 19 - - 0.0
25/09:00am 26.1 24.7 20.5 71 3.7 NW 28 37 15 20 - - 0.0
25/08:50am 26.4 24.4 20.8 71 3.7 NW 32 37 17 20 - - 0.0
25/08:40am 26.6 24.7 21.0 71 3.7 NW 32 43 17 23 - - 0.0
25/08:30am 25.6 25.2 20.9 75 3.1 NW 24 30 13 16 - - 0.0
25/08:20am 25.1 25.2 21.2 79 2.6 NNW 22 26 12 14 - - 0.0
25/08:10am 24.7 24.7 20.9 79 2.5 NNW 22 26 12 14 - - 0.0
25/08:00am 24.7 25.2 21.1 80 2.4 NNW 20 26 11 14 - - 0.0
25/07:50am 24.4 24.9 21.1 82 2.2 NW 20 24 11 13 - - 0.0
25/07:40am 24.3 24.9 21.1 82 2.1 NNW 19 22 10 12 - - 0.0
25/07:30am 24.1 24.5 21.0 83 2.0 NNW 20 22 11 12 - - 0.0
25/07:20am 24.0 23.6 21.0 83 2.0 NNW 24 28 13 15 - - 0.0
25/07:10am 23.9 23.9 21.0 84 1.9 NNW 22 24 12 13 - - 0.0
25/07:00am 23.6 24.0 20.9 85 1.8 NNW 20 24 11 13 - - 0.0
25/06:50am 23.6 24.1 20.9 85 1.8 NNW 19 22 10 12 - - 0.0
25/06:40am 23.5 24.0 20.9 85 1.7 NNW 19 22 10 12 - - 0.0
25/06:30am 23.5 24.4 20.8 85 1.8 NNW 17 20 9 11 - - 0.0
25/06:20am 23.4 25.0 20.8 85 1.7 NNW 13 17 7 9 - - 0.0
25/06:10am 23.5 24.4 20.8 85 1.8 NNW 17 20 9 11 - - 0.0
25/06:00am 23.5 24.3 20.7 84 1.8 NW 17 20 9 11 - - 0.0
25/05:50am 23.5 23.9 20.6 84 1.9 NNW 19 24 10 13 - - 0.0
25/05:40am 23.4 23.8 20.6 84 1.8 NNW 19 20 10 11 - - 0.0
25/05:30am 23.3 23.5 20.5 84 1.8 NNW 20 28 11 15 - - 0.0
25/05:20am 23.1 23.4 20.4 85 1.8 NNW 19 22 10 12 - - 0.0
25/05:10am 23.0 24.0 20.3 85 1.7 NNW 15 19 8 10 - - 0.0
25/05:00am 22.8 24.2 20.3 86 1.6 NNW 13 15 7 8 - - 0.0
25/04:50am 22.7 23.7 20.3 86 1.6 N 15 19 8 10 - - 0.0
25/04:40am 22.8 23.4 20.3 86 1.6 N 17 20 9 11 - - 0.0
25/04:30am 22.7 23.7 20.2 86 1.6 NNW 15 17 8 9 - - 0.0
25/04:20am 22.5 23.8 20.2 87 1.5 N 13 17 7 9 - - 0.0
25/04:10am 22.6 23.2 20.2 86 1.5 - 17 24 9 13 - - 0.0
25/04:00am 22.5 23.5 20.2 87 1.5 NNW 15 17 8 9 - - 0.0
25/03:50am 22.5 23.8 20.2 87 1.5 N 13 15 7 8 - - 0.0
25/03:40am 22.5 24.3 20.3 87 1.4 NNW 11 13 6 7 - - 0.0
25/03:30am 22.5 24.6 20.2 87 1.5 NNW 9 11 5 6 - - 0.0
25/03:20am 22.4 24.1 20.2 87 1.4 N 11 13 6 7 - - 0.0
25/03:10am 22.5 23.8 20.2 87 1.5 N 13 15 7 8 - - 0.0
25/03:00am 22.7 24.9 20.3 86 1.6 N 9 11 5 6 - - 0.0
25/02:50am 22.7 25.2 20.3 86 1.6 NNW 7 9 4 5 - - 0.0
25/02:40am 22.7 25.2 20.3 86 1.6 NW 7 9 4 5 - - 0.0
25/02:30am 22.7 25.2 20.2 86 1.6 NNW 7 9 4 5 - - 0.0
25/02:20am 22.7 25.2 20.2 86 1.6 NNW 7 9 4 5 - - 0.0
25/02:10am 22.7 25.2 20.2 86 1.6 NNW 7 9 4 5 - - 0.0
25/02:00am 22.7 25.2 20.2 86 1.6 NNW 7 9 4 5 - - 0.0
25/01:50am 22.6 24.7 20.1 86 1.6 NNW 9 9 5 5 - - 0.0
25/01:40am 22.6 25.0 20.1 86 1.6 NW 7 9 4 5 - - 0.0
25/01:30am 22.6 24.7 20.1 86 1.6 NNW 9 9 5 5 - - 0.0
25/01:20am 22.5 24.6 20.1 86 1.5 NNW 9 11 5 6 - - 0.0
25/01:10am 22.5 23.8 20.1 86 1.5 N 13 17 7 9 - - 0.0
25/01:00am 22.5 23.4 20.1 86 1.5 - 15 19 8 10 - - 0.0
25/12:50am 22.4 22.9 20.0 86 1.5 N 17 19 9 10 - - 0.0
25/12:40am 22.1 22.9 19.9 87 1.4 N 15 19 8 10 - - 0.0
25/12:30am 21.8 22.6 19.9 89 1.2 NNE 15 19 8 10 - - 0.0
25/12:20am 21.7 22.9 19.9 89 1.2 N 13 15 7 8 - - 0.0
25/12:10am 21.8 23.0 19.9 89 1.2 N 13 17 7 9 - - 0.0
25/12:00am 21.9 23.1 20.0 89 1.2 N 13 13 7 7 - - 0.0
 
Date/Time
EST
Temp
°C
App
Temp
°C
Dew
Point
°C
Rel
Hum
%
Delta-T
°C
Wind Press
QNH
hPa
Press
MSL
hPa
Rain since
9am
mm
Dir  Spd
km/h
Gust
km/h
Spd
kts
Gust
kts
24/11:50pm 22.2 23.8 20.0 87 1.4 NNW 11 13 6 7 - - 0.0
24/11:40pm 22.1 24.1 20.0 88 1.3 NNW 9 11 5 6 - - 0.0
24/11:30pm 22.0 24.0 19.9 88 1.3 NNW 9 11 5 6 - - 0.0
24/11:20pm 22.0 24.0 20.0 88 1.3 WNW 9 9 5 5 - - 0.0
24/11:10pm 22.2 24.2 20.0 87 1.4 WNW 9 11 5 6 - - 0.0
24/11:00pm 22.4 24.4 20.0 86 1.5 NNW 9 9 5 5 - - 0.0
24/10:50pm 22.4 24.0 19.9 86 1.6 NNW 11 13 6 7 - - 0.0
24/10:40pm 22.4 24.0 19.9 86 1.6 N 11 13 6 7 - - 0.0
24/10:30pm 22.3 23.9 19.9 86 1.5 N 11 13 6 7 - - 0.0
24/10:20pm 22.4 24.0 19.9 86 1.6 NNE 11 13 6 7 - - 0.0
24/10:10pm 22.7 24.3 19.9 84 1.8 N 11 11 6 6 - - 0.0
24/10:00pm 22.6 23.8 19.9 85 1.7 N 13 15 7 8 - - 0.0
24/09:50pm 22.7 23.6 20.0 85 1.7 N 15 19 8 10 - - 0.0
24/09:40pm 22.9 24.1 20.0 84 1.9 N 13 15 7 8 - - 0.0
24/09:30pm 23.0 24.2 19.9 83 2.0 N 13 15 7 8 - - 0.0
24/09:20pm 23.1 24.3 20.0 83 2.0 N 13 13 7 7 - - 0.0
24/09:10pm 23.4 24.6 20.0 81 2.2 N 13 15 7 8 - - 0.0
24/09:00pm 23.5 24.8 20.1 81 2.2 NNW 13 17 7 9 - - 0.0
24/08:50pm 23.7 24.6 20.1 80 2.3 N 15 17 8 9 - - 0.0
24/08:40pm 23.8 23.9 20.0 79 2.5 N 19 20 10 11 - - 0.0
24/08:30pm 23.8 24.0 20.1 80 2.4 NNE 19 22 10 12 - - 0.0
24/08:20pm 24.0 24.0 20.1 79 2.5 NNE 20 24 11 13 - - 0.0
24/08:10pm 24.0 23.6 20.2 79 2.5 N 22 28 12 15 - - 0.0
24/08:00pm 24.0 23.3 20.3 80 2.4 NNE 24 26 13 14 - - 0.0
24/07:50pm 24.2 23.2 20.4 79 2.5 N 26 33 14 18 - - 0.0
24/07:40pm 24.4 23.8 20.5 79 2.5 NNE 24 30 13 16 - - 0.0
24/07:30pm 24.7 24.9 20.5 77 2.7 NNE 20 28 11 15 - - 0.0
24/07:20pm 24.9 25.6 20.4 76 2.9 N 17 22 9 12 - - 0.0
24/07:10pm 25.1 26.8 20.1 74 3.2 NNE 11 17 6 9 - - 0.0
24/07:00pm 25.0 27.5 20.2 74 3.1 N 7 15 4 8 - - 0.0
24/06:50pm 25.0 26.6 20.0 74 3.2 NW 11 13 6 7 - - 0.0
24/06:40pm 25.0 27.2 20.3 75 3.1 NW 9 15 5 8 - - 0.0
24/06:30pm 25.1 27.2 20.2 74 3.2 NNE 9 13 5 7 - - 0.0
24/06:20pm 25.2 26.1 20.1 73 3.3 NNE 15 17 8 9 - - 0.0
24/06:10pm 25.6 26.5 20.0 71 3.6 NE 15 26 8 14 - - 0.0
24/06:00pm 25.5 25.9 19.9 71 3.6 NE 17 22 9 12 - - 0.0
24/05:50pm 25.7 25.9 20.1 71 3.6 NE 19 22 10 12 - - 0.0
24/05:40pm 26.0 26.0 20.1 70 3.8 NE 20 26 11 14 - - 0.0
24/05:30pm 26.2 26.4 20.1 69 4.0 NE 19 24 10 13 - - 0.0
24/05:20pm 26.2 26.3 20.0 68 4.0 NE 19 24 10 13 - - 0.0
24/05:10pm 26.3 25.8 20.0 68 4.1 NE 22 26 12 14 - - 0.0
24/05:00pm 26.8 25.6 20.0 66 4.4 NNE 26 30 14 16 - - 0.0
24/04:50pm 27.2 24.8 20.0 64 4.7 NNE 32 39 17 21 - - 0.0
24/04:40pm 27.7 25.2 19.8 62 5.1 N 32 37 17 20 - - 0.0
24/04:30pm 28.1 26.0 19.8 60 5.4 NE 30 33 16 18 - - 0.0
24/04:20pm 28.2 26.1 19.8 60 5.5 NNE 30 33 16 18 - - 0.0
24/04:10pm 27.9 25.4 19.7 61 5.3 NNE 32 39 17 21 - - 0.0
24/04:00pm 28.3 25.3 19.8 60 5.5 NNE 35 44 19 24 - - 0.0
24/03:50pm 28.5 25.9 19.9 59 5.6 NNE 33 41 18 22 - - 0.0
24/03:40pm 28.6 25.8 19.5 58 5.9 NNE 33 43 18 23 - - 0.0
24/03:30pm 28.3 25.5 19.5 59 5.7 NNE 33 39 18 21 - - 0.0
24/03:20pm 28.7 25.1 19.4 57 6.0 NNE 37 41 20 22 - - 0.0
24/03:10pm 28.1 26.3 19.6 60 5.5 NNE 28 33 15 18 - - 0.0
24/03:00pm 28.5 25.7 19.4 57 5.9 NNE 33 43 18 23 - - 0.0
24/02:50pm 29.0 26.3 19.7 57 6.1 NNE 33 37 18 20 - - 0.0
24/02:40pm 29.4 27.3 19.7 56 6.3 NNE 30 37 16 20 - - 0.0
24/02:30pm 28.5 25.5 18.6 55 6.4 N 32 41 17 22 - - 0.0
24/02:20pm 28.6 26.6 19.1 56 6.1 N 28 37 15 20 - - 0.0
24/02:10pm 30.0 28.1 19.4 53 6.9 NNW 28 37 15 20 - - 0.0
24/02:00pm 29.6 28.7 16.9 46 8.0 NW 17 32 9 17 - - 0.0
24/01:50pm 29.4 27.2 17.0 47 7.8 NW 24 35 13 19 - - 0.0
24/01:40pm 30.3 28.6 17.1 45 8.3 NNW 22 30 12 16 - - 0.0
24/01:30pm 30.5 29.7 17.0 44 8.5 NW 17 26 9 14 - - 0.0
24/01:20pm 29.7 28.6 17.8 48 7.6 NNW 20 28 11 15 - - 0.0
24/01:10pm 29.8 28.2 17.5 47 7.8 NNW 22 30 12 16 - - 0.0
24/01:00pm 28.9 26.6 17.5 50 7.2 NNW 26 33 14 18 - - 0.0
24/12:50pm 29.8 27.9 16.8 45 8.2 NNW 22 32 12 17 - - 0.0
24/12:40pm 29.3 27.2 17.2 48 7.6 NNW 24 33 13 18 - - 0.0
24/12:30pm 29.5 27.1 17.3 47 7.7 WNW 26 35 14 19 - - 0.0
24/12:20pm 28.5 26.2 17.7 52 6.8 WNW 26 32 14 17 - - 0.0
24/12:10pm 29.3 27.5 17.9 50 7.3 WNW 24 30 13 16 - - 0.0
24/12:00pm 28.6 27.7 17.7 51 6.9 WNW 19 26 10 14 - - 0.0
24/11:50am 28.3 27.4 17.8 53 6.7 W 19 28 10 15 - - 0.0
24/11:40am 28.1 27.3 18.1 54 6.4 W 19 26 10 14 - - 0.0
24/11:30am 27.6 27.6 18.1 56 6.0 WNW 15 26 8 14 - - 0.0
24/11:20am 27.2 26.7 17.8 56 5.9 WNW 17 24 9 13 - - 0.0
24/11:10am 27.0 26.1 18.2 58 5.6 WNW 20 26 11 14 - - 0.0
24/11:00am 26.6 26.3 18.3 60 5.3 W 17 26 9 14 - - 0.0
24/10:50am 26.8 27.0 18.5 60 5.3 NW 15 22 8 12 - - 0.0
24/10:40am 26.8 27.4 18.7 61 5.2 NNW 13 24 7 13 - - 0.0
24/10:30am 26.4 27.2 18.2 60 5.2 WNW 11 15 6 8 - - 0.0
24/10:20am 26.0 25.2 17.9 61 5.1 WNW 19 24 10 13 - - 0.0
24/10:10am 26.0 25.5 17.9 61 5.1 NNW 17 20 9 11 - - 0.0
24/10:00am 26.0 26.5 18.3 62 4.9 NE 13 20 7 11 - - 0.0
24/09:50am 25.5 26.0 17.5 61 5.0 SE 11 17 6 9 - - 0.0
24/09:40am 25.2 26.1 17.6 62 4.8 E 9 13 5 7 - - 0.0
24/09:30am 24.3 24.9 17.6 66 4.2 SE 11 15 6 8 - - 0.0
24/09:20am 24.1 24.7 17.6 67 4.0 ESE 11 15 6 8 - - 0.0
24/09:10am 24.0 24.5 17.4 66 4.1 E 11 15 6 8 - - 0.0
24/09:00am 23.6 24.3 17.1 67 4.0 SE 9 13 5 7 - - 0.0
24/08:50am 23.0 23.6 16.8 68 3.8 E 9 15 5 8 - - 0.0
24/08:40am 22.5 22.7 16.7 69 3.5 ESE 11 13 6 7 - - 0.0
24/08:30am 21.9 21.9 16.2 70 3.4 ESE 11 13 6 7 - - 0.0
24/08:20am 21.4 21.8 16.2 72 3.1 SE 9 13 5 7 - - 0.0
24/08:10am 20.7 21.3 15.7 73 3.0 SSE 7 11 4 6 - - 0.0
24/08:00am 19.7 19.8 15.4 76 2.5 S 9 11 5 6 - - 0.0
24/07:50am 19.0 19.0 15.3 79 2.2 S 9 11 5 6 - - 0.0
24/07:40am 18.2 17.7 15.0 81 1.9 SSE 11 13 6 7 - - 0.0
24/07:30am 17.4 16.8 14.5 83 1.7 SSE 11 11 6 6 - - 0.0
24/07:20am 16.9 16.2 14.2 84 1.5 SSE 11 15 6 8 - - 0.0
24/07:10am 16.4 15.5 13.8 84 1.5 SSE 11 11 6 6 - - 0.0
24/07:00am 16.1 15.1 13.5 84 1.5 SSE 11 15 6 8 - - 0.0
24/06:50am 15.6 14.7 13.6 88 1.1 SE 11 15 6 8 - - 0.0
24/06:40am 15.1 14.4 13.2 88 1.1 SSE 9 11 5 6 - - 0.0
24/06:30am 14.6 13.8 12.8 89 1.0 S 9 13 5 7 - - 0.0
24/06:20am 14.2 13.0 12.9 92 0.7 S 11 13 6 7 - - 0.0
24/06:10am 13.9 13.6 13.2 96 0.4 S 7 13 4 7 - - 0.0
24/06:00am 13.6 14.5 13.0 96 0.3 CALM 0 2 0 1 - - 0.0
24/05:50am 13.4 13.9 12.7 95 0.4 E 2 6 1 3 - - 0.0
24/05:40am 13.5 13.3 12.9 96 0.3 E 6 6 3 3 - - 0.0
24/05:30am 13.5 13.2 12.8 95 0.4 ESE 6 7 3 4 - - 0.0
24/05:20am 13.6 14.1 12.9 95 0.4 E 2 7 1 4 - - 0.0
24/05:10am 13.8 14.7 13.0 95 0.4 CALM 0 2 0 1 - - 0.0
24/05:00am 13.9 13.7 13.0 94 0.5 W 6 6 3 3 - - 0.0
24/04:50am 14.0 13.8 13.1 94 0.5 WSW 6 7 3 4 - - 0.0
24/04:40am 14.0 14.2 13.2 95 0.4 WSW 4 6 2 3 - - 0.0
24/04:30am 14.1 15.1 13.3 95 0.4 CALM 0 0 0 0 - - 0.0
24/04:20am 14.2 15.3 13.4 95 0.4 CALM 0 0 0 0 - - 0.0
24/04:10am 14.3 15.0 13.5 95 0.4 NNE 2 4 1 2 - - 0.0
24/04:00am 14.5 14.4 13.4 93 0.6 E 6 9 3 5 - - 0.0
24/03:50am 14.7 14.6 13.8 94 0.5 SSE 7 9 4 5 - - 0.0
24/03:40am 14.6 14.6 13.7 94 0.5 SSE 6 7 3 4 - - 0.0
24/03:30am 14.7 14.8 13.8 94 0.5 S 6 7 3 4 - - 0.0
24/03:20am 14.8 15.3 14.1 96 0.4 SSE 4 7 2 4 - - 0.0
24/03:10am 14.9 14.9 14.1 95 0.5 SSE 7 7 4 4 - - 0.0
24/03:00am 14.7 14.8 14.0 96 0.4 S 6 9 3 5 - - 0.0
24/02:50am 14.6 15.1 13.9 96 0.4 SSW 4 7 2 4 - - 0.0
24/02:40am 14.9 16.2 14.2 96 0.4 CALM 0 0 0 0 - - 0.0
24/02:30am 14.9 16.3 14.3 96 0.3 CALM 0 0 0 0 - - 0.0
24/02:20am 14.9 16.3 14.3 96 0.3 CALM 0 0 0 0 - - 0.0
24/02:10am 14.8 16.1 14.1 96 0.4 CALM 0 0 0 0 - - 0.0
24/02:00am 14.8 16.1 14.0 95 0.4 CALM 0 0 0 0 - - 0.0
24/01:50am 14.8 15.3 14.0 95 0.4 ENE 4 7 2 4 - - 0.0
24/01:40am 15.0 15.0 14.2 95 0.5 NE 7 7 4 4 - - 0.0
24/01:30am 15.1 15.3 14.2 94 0.5 NNE 6 7 3 4 - - 0.0
24/01:20am 15.2 15.4 14.2 94 0.6 NNE 6 7 3 4 - - 0.0
24/01:10am 15.3 16.0 14.4 94 0.5 NE 4 6 2 3 - - 0.0
24/01:00am 15.3 15.5 14.2 93 0.6 NNE 6 7 3 4 - - 0.0
24/12:50am 15.5 16.5 14.4 93 0.6 NNW 2 6 1 3 - - 0.0
24/12:40am 15.5 16.5 14.3 92 0.7 NE 2 4 1 2 - - 0.0
24/12:30am 15.6 16.3 14.4 93 0.7 SE 4 6 2 3 - - 0.0
24/12:20am 15.9 17.0 14.6 92 0.7 SSE 2 6 1 3 - - 0.0
24/12:10am 16.1 17.3 14.8 92 0.7 SSW 2 6 1 3 - - 0.0
24/12:00am 16.2 17.3 14.7 91 0.9 WSW 2 4 1 2 - - 0.0
 
Date/Time
EST
Temp
°C
App
Temp
°C
Dew
Point
°C
Rel
Hum
%
Delta-T
°C
Wind Press
QNH
hPa
Press
MSL
hPa
Rain since
9am
mm
Dir  Spd
km/h
Gust
km/h
Spd
kts
Gust
kts
23/11:50pm 16.3 17.8 14.7 90 0.9 CALM 0 2 0 1 - - 0.0
23/11:40pm 16.7 17.5 14.7 88 1.2 ESE 4 7 2 4 - - 0.0
23/11:30pm 16.7 17.5 14.8 88 1.1 SSE 4 7 2 4 - - 0.0
23/11:20pm 17.0 18.2 14.8 87 1.3 WSW 2 4 1 2 - - 0.0
23/11:10pm 17.4 17.9 14.9 85 1.4 W 6 6 3 3 - - 0.0
23/11:00pm 17.5 17.8 15.0 85 1.5 W 7 9 4 5 - - 0.0
23/10:50pm 17.7 18.0 15.0 84 1.6 W 7 9 4 5 - - 0.0
23/10:40pm 17.9 18.3 14.8 82 1.8 WSW 6 7 3 4 - - 0.0
23/10:30pm 18.1 18.5 14.7 80 2.0 WSW 6 6 3 3 - - 0.0
23/10:20pm 18.3 18.6 14.9 80 2.0 WSW 7 9 4 5 - - 0.0
23/10:10pm 18.8 19.0 14.8 77 2.3 NW 7 13 4 7 - - 0.0
23/10:00pm 18.8 18.6 14.6 76 2.4 NNW 9 11 5 6 - - 0.0
23/09:50pm 18.7 17.7 14.5 76 2.4 N 13 15 7 8 - - 0.0
23/09:40pm 18.7 17.7 14.5 76 2.4 N 13 15 7 8 - - 0.0
23/09:30pm 18.8 17.4 14.4 75 2.5 NNW 15 17 8 9 - - 0.0
23/09:20pm 18.5 18.2 14.3 76 2.4 NNW 9 11 5 6 - - 0.0
23/09:10pm 18.5 19.2 14.5 77 2.3 NNW 4 7 2 4 - - 0.0
23/09:00pm 18.7 18.8 14.5 76 2.4 N 7 9 4 5 - - 0.0
23/08:50pm 18.9 19.2 14.5 75 2.5 NNE 6 7 3 4 - - 0.0
23/08:40pm 19.1 18.8 14.4 74 2.7 NNW 9 11 5 6 - - 0.0
23/08:30pm 19.5 18.9 14.5 73 2.9 NNE 11 15 6 8 - - 0.0
23/08:20pm 19.7 19.5 14.6 72 3.0 NE 9 13 5 7 - - 0.0
23/08:10pm 19.9 20.2 14.5 71 3.1 NNE 6 6 3 3 - - 0.0
23/08:00pm 20.2 20.4 14.3 69 3.4 N 6 9 3 5 - - 0.0
23/07:50pm 20.0 20.2 14.3 69 3.3 ENE 6 9 3 5 - - 0.0
23/07:40pm 20.1 19.4 14.3 69 3.4 NNE 11 13 6 7 - - 0.0
23/07:30pm 20.6 20.5 14.0 66 3.8 NNE 7 11 4 6 - - 0.0
23/07:20pm 20.8 19.6 13.9 64 4.0 NNE 13 15 7 8 - - 0.0
23/07:10pm 21.0 19.4 13.8 63 4.2 N 15 19 8 10 - - 0.0
23/07:00pm 21.7 20.2 13.2 58 4.9 N 13 20 7 11 - - 0.0
23/06:50pm 22.4 21.1 11.1 48 6.3 NNE 9 9 5 5 - - 0.0
23/06:40pm 23.4 22.3 9.8 42 7.4 NNW 6 9 3 5 - - 0.0
23/06:30pm 24.0 21.7 7.6 35 8.6 SW 9 13 5 7 - - 0.0
23/06:20pm 24.2 21.6 7.8 35 8.7 SW 11 11 6 6 - - 0.0
23/06:10pm 25.0 22.4 7.7 33 9.2 SSW 11 13 6 7 - - 0.0
23/06:00pm 25.8 23.0 7.0 30 9.9 SSW 11 13 6 7 - - 0.0
23/05:50pm 26.4 22.9 7.2 29 10.2 SW 15 17 8 9 - - 0.0
23/05:40pm 26.8 22.3 6.2 27 10.7 SW 19 22 10 12 - - 0.0
23/05:30pm 27.4 22.7 6.0 25 11.2 SW 20 26 11 14 - - 0.0
23/05:20pm 27.6 22.6 6.4 26 11.1 SW 22 26 12 14 - - 0.0
23/05:10pm 28.0 22.8 5.6 24 11.6 SW 22 26 12 14 - - 0.0
23/05:00pm 28.2 23.6 5.7 24 11.7 WSW 19 22 10 12 - - 0.0
23/04:50pm 28.2 23.5 6.0 24 11.6 WSW 20 24 11 13 - - 0.0
23/04:40pm 28.3 22.6 6.9 26 11.4 WSW 26 33 14 18 - - 0.0
23/04:30pm 28.5 23.8 6.1 24 11.8 WSW 20 26 11 14 - - 0.0
23/04:20pm 28.5 22.7 6.1 24 11.8 WSW 26 33 14 18 - - 0.0
23/04:10pm 28.6 23.9 7.6 26 11.3 W 22 28 12 15 - - 0.0
23/04:00pm 28.8 23.0 6.1 23 11.9 WSW 26 32 14 17 - - 0.0
23/03:50pm 28.8 22.7 6.8 25 11.7 W 28 37 15 20 - - 0.0
23/03:40pm 28.6 23.3 6.6 25 11.7 WSW 24 28 13 15 - - 0.0
23/03:30pm 28.7 23.6 7.7 26 11.4 W 24 33 13 18 - - 0.0
23/03:20pm 28.6 22.8 6.2 24 11.8 W 26 35 14 19 - - 0.0
23/03:10pm 28.7 23.0 6.5 24 11.8 WSW 26 33 14 18 - - 0.0
23/03:00pm 28.7 22.2 6.6 24 11.7 WSW 30 35 16 19 - - 0.0
23/02:50pm 28.7 23.2 6.0 23 11.9 WSW 24 30 13 16 - - 0.0
23/02:40pm 28.7 23.3 8.2 27 11.2 WSW 26 32 14 17 - - 0.0
23/02:30pm 28.4 22.0 7.1 26 11.4 WSW 30 35 16 19 - - 0.0
23/02:20pm 28.5 21.5 6.1 24 11.8 WSW 32 35 17 19 - - 0.0
23/02:10pm 28.5 22.6 6.0 24 11.8 W 26 35 14 19 - - 0.0
23/02:00pm 28.6 23.7 6.7 25 11.6 W 22 30 12 16 - - 0.0
23/01:50pm 28.4 23.5 6.9 25 11.4 WSW 22 35 12 19 - - 0.0
23/01:40pm 28.0 24.2 7.4 27 11.0 WSW 17 24 9 13 - - 0.0
23/01:30pm 28.1 25.1 7.7 27 11.0 W 13 20 7 11 - - 0.0
23/01:20pm 27.8 23.4 9.1 31 10.3 W 22 32 12 17 - - 0.0
23/01:10pm 27.9 22.9 8.1 28 10.7 WSW 24 32 13 17 - - 0.0
23/01:00pm 27.7 24.3 9.1 31 10.2 SW 17 22 9 12 - - 0.0
23/12:50pm 27.2 24.0 9.9 33 9.6 NNW 17 24 9 13 - - 0.0
23/12:40pm 27.0 23.8 9.8 34 9.5 WNW 17 22 9 12 - - 0.0
23/12:30pm 26.8 23.1 9.3 33 9.6 NNW 19 32 10 17 - - 0.0
23/12:20pm 27.1 24.0 9.0 32 9.9 W 15 20 8 11 - - 0.0
23/12:10pm 26.5 23.8 9.0 33 9.6 SW 13 17 7 9 - - 0.0
23/12:00pm 26.5 23.1 9.3 33 9.4 WNW 17 24 9 13 - - 0.0
23/11:50am 25.8 21.9 8.6 33 9.3 NW 19 22 10 12 - - 0.0
23/11:40am 25.9 22.0 8.8 34 9.3 NW 19 28 10 15 - - 0.0
23/11:30am 26.0 23.5 8.2 32 9.6 N 11 22 6 12 - - 0.0
23/11:20am 25.4 21.6 9.2 36 8.8 NW 19 28 10 15 - - 0.0
23/11:10am 25.6 22.5 8.7 34 9.1 W 15 22 8 12 - - 0.0
23/11:00am 25.7 23.7 8.7 34 9.2 NE 9 13 5 7 - - 0.0
23/10:50am 25.1 22.4 8.8 35 8.8 W 13 19 7 10 - - 0.0
23/10:40am 25.6 23.9 8.2 33 9.3 SE 7 13 4 7 - - 0.0
23/10:30am 25.0 23.0 8.7 35 8.8 SW 9 11 5 6 - - 0.0
23/10:20am 24.5 21.6 8.0 35 8.8 SSE 13 20 7 11 - - 0.0
23/10:10am 24.4 21.6 8.6 36 8.5 SSE 13 20 7 11 - - 0.0
23/10:00am 24.2 21.7 8.3 36 8.5 SE 11 17 6 9 - - 0.0
23/09:50am 23.7 20.8 8.3 37 8.2 SE 13 17 7 9 - - 0.0
23/09:40am 23.2 20.5 8.8 39 7.7 SSE 13 17 7 9 - - 0.0
23/09:30am 22.8 20.0 8.7 40 7.5 SSE 13 17 7 9 - - 0.0
23/09:20am 22.6 20.0 9.2 42 7.2 S 13 19 7 10 - - 0.0
23/09:10am 22.4 19.3 8.8 41 7.2 SSE 15 19 8 10 - - 0.0
23/09:00am 21.8 18.3 8.7 43 6.9 S 17 20 9 11 - - 0.0
23/08:50am 21.5 17.8 8.1 42 7.0 S 17 20 9 11 - - 0.0
23/08:40am 21.3 18.6 8.9 45 6.6 S 13 19 7 10 - - 0.0
23/08:30am 21.0 18.4 9.5 47 6.1 S 13 15 7 8 - - 0.0
23/08:20am 21.0 19.2 9.4 47 6.2 S 9 13 5 7 - - 0.0
23/08:10am 20.6 19.0 10.1 51 5.7 SSE 9 13 5 7 - - 0.0
23/08:00am 19.9 18.3 10.3 54 5.2 S 9 11 5 6 - - 0.0
23/07:50am 19.4 17.7 9.7 53 5.2 SSE 9 11 5 6 - - 0.0
23/07:40am 18.8 17.3 10.7 59 4.4 S 9 13 5 7 - - 0.0
23/07:30am 18.5 17.0 10.5 59 4.3 SSE 9 11 5 6 - - 0.0
23/07:20am 17.8 15.8 10.1 60 4.1 S 11 13 6 7 - - 0.0
23/07:10am 17.5 16.0 10.6 64 3.7 S 9 11 5 6 - - 0.0
23/07:00am 16.9 16.4 10.8 67 3.3 S 4 7 2 4 - - 0.0
23/06:50am 16.1 16.5 11.3 73 2.6 CALM 0 0 0 0 - - 0.0
23/06:40am 14.7 14.9 10.6 76 2.2 CALM 0 0 0 0 - - 0.0
23/06:30am 13.7 13.4 10.0 78 1.9 E 2 4 1 2 - - 0.0
23/06:20am 12.7 12.0 10.1 84 1.3 ESE 4 7 2 4 - - 0.0
23/06:10am 12.5 11.9 10.4 87 1.1 E 4 6 2 3 - - 0.0
23/06:00am 12.9 12.0 10.5 85 1.2 NE 6 9 3 5 - - 0.0
23/05:50am 13.0 12.8 10.5 85 1.3 WSW 2 6 1 3 - - 0.0
23/05:40am 12.9 12.4 10.6 86 1.2 NE 4 7 2 4 - - 0.0
23/05:30am 13.0 12.4 10.5 85 1.3 NE 4 9 2 5 - - 0.0
23/05:20am 13.0 12.0 10.4 84 1.3 NNE 6 9 3 5 - - 0.0
23/05:10am 13.0 13.2 10.4 84 1.3 CALM 0 0 0 0 - - 0.0
23/05:00am 13.4 13.2 10.4 82 1.6 E 2 4 1 2 - - 0.0
23/04:50am 13.8 12.6 9.7 76 2.1 SW 6 7 3 4 - - 0.0
23/04:40am 13.4 13.2 10.5 82 1.5 SSE 2 2 1 1 - - 0.0
23/04:30am 13.2 12.2 10.3 82 1.5 E 6 9 3 5 - - 0.0
23/04:20am 13.2 13.0 10.4 83 1.5 NE 2 6 1 3 - - 0.0
23/04:10am 13.4 13.2 10.3 81 1.6 NE 2 6 1 3 - - 0.0
23/04:00am 13.7 13.5 10.4 80 1.7 NNE 2 9 1 5 - - 0.0
23/03:50am 13.7 13.4 10.0 78 1.9 E 2 7 1 4 - - 0.0
23/03:40am 13.8 12.9 10.5 80 1.7 E 6 7 3 4 - - 0.0
23/03:30am 14.1 13.0 10.5 79 1.9 NNE 7 7 4 4 - - 0.0
23/03:20am 14.4 14.3 10.7 78 1.9 NNW 2 4 1 2 - - 0.0
23/03:10am 14.3 14.1 10.3 77 2.1 NNW 2 6 1 3 - - 0.0
23/03:00am 14.4 13.2 9.6 73 2.5 NNE 6 9 3 5 - - 0.0
23/02:50am 14.2 13.8 9.7 74 2.3 N 2 7 1 4 - - 0.0
23/02:40am 14.3 13.6 9.9 75 2.3 N 4 7 2 4 - - 0.0
23/02:30am 14.6 14.3 10.1 74 2.3 ENE 2 6 1 3 - - 0.0
23/02:20am 15.0 14.7 10.0 72 2.6 E 2 4 1 2 - - 0.0
23/02:10am 15.4 14.3 9.8 69 2.9 ESE 6 6 3 3 - - 0.0
23/02:00am 15.2 14.4 9.5 69 2.9 S 4 7 2 4 - - 0.0
23/01:50am 14.9 13.3 10.3 74 2.4 NNE 9 15 5 8 - - 0.0
23/01:40am 15.2 15.0 10.5 73 2.5 NE 2 4 1 2 - - 0.0
23/01:30am 15.8 15.1 10.2 69 2.9 NE 4 7 2 4 - - 0.0
23/01:20am 16.5 15.3 9.4 63 3.7 W 6 9 3 5 - - 0.0
23/01:10am 16.9 15.1 9.5 61 3.9 WSW 9 11 5 6 - - 0.0
23/01:00am 16.6 15.8 9.7 63 3.6 WNW 4 6 2 3 - - 0.0
23/12:50am 17.1 16.0 10.0 63 3.7 E 6 9 3 5 - - 0.0
23/12:40am 17.5 16.2 9.8 60 4.1 S 7 9 4 5 - - 0.0
23/12:30am 17.3 16.1 9.5 60 4.1 S 6 7 3 4 - - 0.0
23/12:20am 17.3 15.1 9.3 59 4.2 S 11 13 6 7 - - 0.0
23/12:10am 17.6 16.2 9.4 58 4.3 S 7 13 4 7 - - 0.0
23/12:00am 17.6 16.9 8.7 56 4.6 SSE 2 4 1 2 - - 0.0
 
Date/Time
EST
Temp
°C
App
Temp
°C
Dew
Point
°C
Rel
Hum
%
Delta-T
°C
Wind Press
QNH
hPa
Press
MSL
hPa
Rain since
9am
mm
Dir  Spd
km/h
Gust
km/h
Spd
kts
Gust
kts
22/11:50pm 17.9 17.4 9.3 57 4.5 SE 2 6 1 3 - - 0.0
22/11:40pm 18.4 17.7 8.7 53 5.0 SE 2 4 1 2 - - 0.0
22/11:30pm 18.8 17.4 9.0 53 5.1 SSE 6 9 3 5 - - 0.0
22/11:20pm 18.8 16.9 9.2 53 5.0 SSE 9 11 5 6 - - 0.0
22/11:10pm 19.1 16.9 9.4 53 5.1 SSE 11 13 6 7 - - 0.0
22/11:00pm 19.1 16.7 8.7 51 5.4 SSE 11 11 6 6 - - 0.0
22/10:50pm 19.4 17.0 8.7 50 5.6 S 11 13 6 7 - - 0.0
22/10:40pm 19.2 17.1 6.8 44 6.2 SSE 7 11 4 6 - - 0.0
22/10:30pm 18.5 16.6 7.4 48 5.6 SE 7 9 4 5 - - 0.0
22/10:20pm 17.8 16.2 8.8 55 4.7 NE 7 9 4 5 - - 0.0
22/10:10pm 17.6 15.8 9.3 58 4.3 NNE 9 9 5 5 - - 0.0
22/10:00pm 17.9 16.5 9.4 57 4.5 NE 7 7 4 4 - - 0.0
22/09:50pm 17.8 15.3 8.2 53 4.9 NNE 11 11 6 6 - - 0.0
22/09:40pm 17.7 16.4 9.2 57 4.4 ENE 6 6 3 3 - - 0.0
22/09:30pm 18.3 17.0 9.1 55 4.8 E 6 9 3 5 - - 0.0
22/09:20pm 18.8 18.3 8.0 49 5.5 CALM 0 0 0 0 - - 0.0
22/09:10pm 19.2 18.0 7.9 48 5.8 NE 4 6 2 3 - - 0.0
22/09:00pm 20.2 19.1 8.5 47 6.1 SSE 4 9 2 5 - - 0.0
22/08:50pm 21.3 19.2 6.6 38 7.5 SSW 7 9 4 5 - - 0.0
22/08:40pm 21.6 19.5 6.5 37 7.7 SSW 7 7 4 4 - - 0.0
22/08:30pm 21.9 19.7 6.2 36 7.9 SW 7 9 4 5 - - 0.0
22/08:20pm 22.0 20.2 7.3 38 7.6 SW 6 7 3 4 - - 0.0
22/08:10pm 22.2 20.4 7.0 37 7.8 SW 6 9 3 5 - - 0.0
22/08:00pm 22.3 19.3 6.2 35 8.2 WSW 11 15 6 8 - - 0.0
22/07:50pm 21.8 19.3 6.7 37 7.7 W 9 11 5 6 - - 0.0
22/07:40pm 22.6 19.7 8.1 39 7.6 SW 13 19 7 10 - - 0.0
22/07:30pm 22.8 19.7 7.1 36 8.1 W 13 15 7 8 - - 0.0
22/07:20pm 23.1 20.1 7.5 36 8.1 W 13 15 7 8 - - 0.0
22/07:10pm 23.2 19.8 7.5 36 8.2 WNW 15 17 8 9 - - 0.0
22/07:00pm 23.4 21.6 9.4 41 7.6 WNW 9 11 5 6 - - 0.0
22/06:50pm 23.8 22.4 11.0 44 7.1 WNW 9 11 5 6 - - 0.0
22/06:40pm 24.3 21.7 7.9 35 8.7 W 11 13 6 7 - - 0.0

Other Formats:

Comma delimited format used in spreadsheet applications
http://www.bom.gov.au/fwo/IDQ60801/IDQ60801.99083.axf

JavaScript Object Notation format (JSON) in row-major order
http://www.bom.gov.au/fwo/IDQ60801/IDQ60801.99083.json